createdAt,value
2023-05-01T00:00:48.032Z,1014.46
2023-05-01T00:01:48.001Z,1014.45
2023-05-01T00:02:48.143Z,1014.49
2023-05-01T00:03:48.196Z,1014.47
2023-05-01T00:04:47.987Z,1014.43
2023-05-01T00:05:47.937Z,1014.43
2023-05-01T00:06:48.010Z,1014.40
2023-05-01T00:07:47.919Z,1014.42
2023-05-01T00:08:47.931Z,1014.37
2023-05-01T00:09:47.898Z,1014.37
2023-05-01T00:10:47.890Z,1014.37
2023-05-01T00:11:47.862Z,1014.39
2023-05-01T00:12:47.861Z,1014.39
2023-05-01T00:13:47.865Z,1014.41
2023-05-01T00:14:47.822Z,1014.40
2023-05-01T00:15:47.809Z,1014.39
2023-05-01T00:16:47.911Z,1014.35
2023-05-01T00:17:47.801Z,1014.35
2023-05-01T00:18:47.808Z,1014.32
2023-05-01T00:19:47.750Z,1014.29
2023-05-01T00:20:47.758Z,1014.28
2023-05-01T00:21:47.736Z,1014.29
2023-05-01T00:22:47.722Z,1014.30
2023-05-01T00:23:47.718Z,1014.28
2023-05-01T00:24:47.689Z,1014.27
2023-05-01T00:25:47.676Z,1014.27
2023-05-01T00:26:47.667Z,1014.25
2023-05-01T00:27:47.651Z,1014.22
2023-05-01T00:28:47.663Z,1014.21
2023-05-01T00:29:47.640Z,1014.23
2023-05-01T00:30:47.640Z,1014.23
2023-05-01T00:31:47.752Z,1014.24
2023-05-01T00:32:47.662Z,1014.17
2023-05-01T00:33:47.637Z,1014.21
2023-05-01T00:34:47.565Z,1014.20
2023-05-01T00:35:47.548Z,1014.17
2023-05-01T00:36:49.317Z,1014.13
2023-05-01T00:37:47.523Z,1014.19
2023-05-01T00:38:47.538Z,1014.16
2023-05-01T00:39:47.541Z,1014.12
2023-05-01T00:40:47.483Z,1014.14
2023-05-01T00:41:47.483Z,1014.10
2023-05-01T00:42:47.455Z,1014.12
2023-05-01T00:43:47.433Z,1014.09
2023-05-01T00:44:47.460Z,1014.11
2023-05-01T00:45:47.513Z,1014.11
2023-05-01T00:46:47.452Z,1014.12
2023-05-01T00:47:47.435Z,1014.06
2023-05-01T00:48:47.381Z,1014.10
2023-05-01T00:49:47.371Z,1014.05
2023-05-01T00:50:47.407Z,1014.04
2023-05-01T00:51:47.359Z,1014.01
2023-05-01T00:52:47.353Z,1013.97
2023-05-01T00:53:47.362Z,1013.98
2023-05-01T00:54:47.380Z,1014.00
2023-05-01T00:55:47.369Z,1013.99
2023-05-01T00:56:47.278Z,1013.95
2023-05-01T00:57:47.356Z,1013.95
2023-05-01T00:58:47.275Z,1013.91
2023-05-01T00:59:47.292Z,1013.89
2023-05-01T01:00:47.244Z,1013.88
2023-05-01T01:01:47.336Z,1013.88
2023-05-01T01:02:47.230Z,1013.92
2023-05-01T01:03:47.192Z,1013.87
2023-05-01T01:04:47.264Z,1013.82
2023-05-01T01:05:47.143Z,1013.84
2023-05-01T01:06:47.218Z,1013.81
2023-05-01T01:07:47.128Z,1013.81
2023-05-01T01:08:47.123Z,1013.80
2023-05-01T01:09:47.108Z,1013.76
2023-05-01T01:10:47.084Z,1013.75
2023-05-01T01:11:47.062Z,1013.75
2023-05-01T01:12:47.059Z,1013.75
2023-05-01T01:13:47.054Z,1013.75
2023-05-01T01:14:47.054Z,1013.74
2023-05-01T01:15:47.007Z,1013.74
2023-05-01T01:16:47.031Z,1013.73
2023-05-01T01:17:47.067Z,1013.70
2023-05-01T01:18:46.994Z,1013.72
2023-05-01T01:19:46.977Z,1013.71
2023-05-01T01:20:46.936Z,1013.68
2023-05-01T01:21:46.925Z,1013.66
2023-05-01T01:22:46.924Z,1013.60
2023-05-01T01:23:46.947Z,1013.58
2023-05-01T01:24:46.889Z,1013.58
2023-05-01T01:25:46.863Z,1013.56
2023-05-01T01:26:46.860Z,1013.60
2023-05-01T01:27:46.839Z,1013.56
2023-05-01T01:28:46.868Z,1013.57
2023-05-01T01:29:46.822Z,1013.51
2023-05-01T01:30:46.890Z,1013.50
2023-05-01T01:31:46.786Z,1013.50
2023-05-01T01:32:46.815Z,1013.47
2023-05-01T01:33:46.774Z,1013.51
2023-05-01T01:34:46.752Z,1013.50
2023-05-01T01:35:46.727Z,1013.52
2023-05-01T01:36:46.725Z,1013.49
2023-05-01T01:37:46.697Z,1013.49
2023-05-01T01:38:46.720Z,1013.45
2023-05-01T01:39:46.680Z,1013.51
2023-05-01T01:40:46.671Z,1013.49
2023-05-01T01:41:46.652Z,1013.47
2023-05-01T01:42:46.644Z,1013.47
2023-05-01T01:43:46.659Z,1013.46
2023-05-01T01:44:46.622Z,1013.40
2023-05-01T01:45:46.613Z,1013.43
2023-05-01T01:46:46.615Z,1013.34
2023-05-01T01:47:46.594Z,1013.37
2023-05-01T01:48:46.613Z,1013.37
2023-05-01T01:49:46.543Z,1013.32
2023-05-01T01:50:46.558Z,1013.33
2023-05-01T01:51:46.522Z,1013.33
2023-05-01T01:52:46.524Z,1013.33
2023-05-01T01:53:46.514Z,1013.33
2023-05-01T01:54:46.500Z,1013.33
2023-05-01T01:55:46.463Z,1013.32
2023-05-01T01:56:46.462Z,1013.30
2023-05-01T01:57:46.438Z,1013.27
2023-05-01T01:58:46.448Z,1013.28
2023-05-01T01:59:46.417Z,1013.26
2023-05-01T02:00:46.413Z,1013.24
2023-05-01T02:01:46.432Z,1013.27
2023-05-01T02:02:46.415Z,1013.25
2023-05-01T02:03:46.508Z,1013.18
2023-05-01T02:04:46.344Z,1013.19
2023-05-01T02:05:46.323Z,1013.20
2023-05-01T02:06:46.366Z,1013.15
2023-05-01T02:07:46.309Z,1013.14
2023-05-01T02:08:46.317Z,1013.11
2023-05-01T02:09:46.265Z,1013.13
2023-05-01T02:10:46.293Z,1013.09
2023-05-01T02:11:46.237Z,1013.11
2023-05-01T02:12:46.248Z,1013.10
2023-05-01T02:13:46.225Z,1013.07
2023-05-01T02:14:46.213Z,1013.06
2023-05-01T02:15:46.208Z,1013.06
2023-05-01T02:16:46.180Z,1013.05
2023-05-01T02:17:46.180Z,1013.04
2023-05-01T02:18:46.168Z,1013.04
2023-05-01T02:19:46.137Z,1013.01
2023-05-01T02:20:46.125Z,1012.98
2023-05-01T02:21:46.106Z,1012.98
2023-05-01T02:22:46.136Z,1012.94
2023-05-01T02:23:46.089Z,1012.98
2023-05-01T02:24:46.072Z,1012.93
2023-05-01T02:25:46.080Z,1012.92
2023-05-01T02:26:46.036Z,1012.95
2023-05-01T02:27:46.016Z,1012.88
2023-05-01T02:28:46.049Z,1012.90
2023-05-01T02:29:46.003Z,1012.88
2023-05-01T02:30:45.994Z,1012.88
2023-05-01T02:31:45.992Z,1012.88
2023-05-01T02:32:45.999Z,1012.86
2023-05-01T02:33:45.983Z,1012.86
2023-05-01T02:34:45.953Z,1012.83
2023-05-01T02:35:45.915Z,1012.85
2023-05-01T02:36:45.905Z,1012.83
2023-05-01T02:37:45.905Z,1012.82
2023-05-01T02:38:45.891Z,1012.82
2023-05-01T02:39:45.872Z,1012.81
2023-05-01T02:40:45.939Z,1012.76
2023-05-01T02:41:45.840Z,1012.74
2023-05-01T02:42:45.846Z,1012.74
2023-05-01T02:43:45.825Z,1012.74
2023-05-01T02:44:45.804Z,1012.70
2023-05-01T02:45:45.882Z,1012.69
2023-05-01T02:46:45.813Z,1012.67
2023-05-01T02:47:45.827Z,1012.69
2023-05-01T02:48:45.755Z,1012.65
2023-05-01T02:49:45.746Z,1012.73
2023-05-01T02:50:45.727Z,1012.69
2023-05-01T02:51:45.695Z,1012.64
2023-05-01T02:52:45.678Z,1012.62
2023-05-01T02:53:45.696Z,1012.63
2023-05-01T02:54:45.672Z,1012.63
2023-05-01T02:55:45.669Z,1012.55
2023-05-01T02:56:45.628Z,1012.55
2023-05-01T02:57:45.617Z,1012.53
2023-05-01T02:58:45.636Z,1012.55
2023-05-01T02:59:45.601Z,1012.51
2023-05-01T03:00:45.787Z,1012.50
2023-05-01T03:01:45.621Z,1012.56
2023-05-01T03:02:45.597Z,1012.62
2023-05-01T03:03:45.625Z,1012.48
2023-05-01T03:04:45.547Z,1012.53
2023-05-01T03:05:45.535Z,1012.44
2023-05-01T03:06:45.549Z,1012.42
2023-05-01T03:07:45.487Z,1012.40
2023-05-01T03:08:45.488Z,1012.41
2023-05-01T03:09:45.456Z,1012.38
2023-05-01T03:10:45.443Z,1012.39
2023-05-01T03:11:45.445Z,1012.41
2023-05-01T03:12:45.582Z,1012.35
2023-05-01T03:13:45.425Z,1012.34
2023-05-01T03:14:45.391Z,1012.34
2023-05-01T03:15:45.392Z,1012.32
2023-05-01T03:16:45.370Z,1012.29
2023-05-01T03:17:45.382Z,1012.32
2023-05-01T03:18:45.368Z,1012.30
2023-05-01T03:19:45.333Z,1012.28
2023-05-01T03:20:45.302Z,1012.26
2023-05-01T03:21:45.296Z,1012.25
2023-05-01T03:22:45.269Z,1012.27
2023-05-01T03:23:45.281Z,1012.25
2023-05-01T03:24:45.248Z,1012.24
2023-05-01T03:25:45.233Z,1012.26
2023-05-01T03:26:45.215Z,1012.24
2023-05-01T03:27:45.204Z,1012.22
2023-05-01T03:28:45.206Z,1012.21
2023-05-01T03:29:45.209Z,1012.20
2023-05-01T03:30:45.168Z,1012.19
2023-05-01T03:31:45.176Z,1012.21
2023-05-01T03:32:45.262Z,1012.13
2023-05-01T03:33:45.138Z,1012.18
2023-05-01T03:34:45.110Z,1012.17
2023-05-01T03:35:45.135Z,1012.14
2023-05-01T03:36:45.076Z,1012.14
2023-05-01T03:37:45.072Z,1012.14
2023-05-01T03:38:45.088Z,1012.14
2023-05-01T03:39:45.048Z,1012.14
2023-05-01T03:40:45.022Z,1012.11
2023-05-01T03:41:45.013Z,1012.11
2023-05-01T03:42:44.994Z,1012.09
2023-05-01T03:43:44.999Z,1012.09
2023-05-01T03:44:44.996Z,1012.09
2023-05-01T03:45:45.137Z,1012.12
2023-05-01T03:46:44.975Z,1012.09
2023-05-01T03:47:45.017Z,1012.11
2023-05-01T03:48:44.941Z,1012.07
2023-05-01T03:49:44.924Z,1012.04
2023-05-01T03:50:44.878Z,1012.05
2023-05-01T03:51:44.878Z,1012.08
2023-05-01T03:52:44.860Z,1012.08
2023-05-01T03:53:44.887Z,1012.07
2023-05-01T03:54:44.837Z,1012.05
2023-05-01T03:55:44.824Z,1012.03
2023-05-01T03:56:44.821Z,1012.03
2023-05-01T03:57:44.803Z,1012.06
2023-05-01T03:58:44.785Z,1012.06
2023-05-01T03:59:44.790Z,1012.04
2023-05-01T04:00:44.741Z,1012.04
2023-05-01T04:01:44.767Z,1012.02
2023-05-01T04:02:44.788Z,1012.01
2023-05-01T04:03:44.848Z,1011.96
2023-05-01T04:04:44.697Z,1011.97
2023-05-01T04:05:44.693Z,1012.00
2023-05-01T04:06:44.794Z,1012.02
2023-05-01T04:07:44.656Z,1012.00
2023-05-01T04:08:44.637Z,1011.96
2023-05-01T04:09:44.668Z,1011.98
2023-05-01T04:10:44.625Z,1012.04
2023-05-01T04:11:44.604Z,1011.98
2023-05-01T04:12:44.609Z,1012.03
2023-05-01T04:13:44.594Z,1011.98
2023-05-01T04:14:44.593Z,1011.99
2023-05-01T04:15:44.578Z,1011.94
2023-05-01T04:16:44.540Z,1011.98
2023-05-01T04:17:44.573Z,1011.96
2023-05-01T04:18:44.520Z,1011.92
2023-05-01T04:19:44.498Z,1011.97
2023-05-01T04:20:44.485Z,1011.95
2023-05-01T04:21:44.464Z,1011.96
2023-05-01T04:22:44.453Z,1011.96
2023-05-01T04:23:44.521Z,1011.95
2023-05-01T04:24:44.426Z,1011.95
2023-05-01T04:25:44.439Z,1011.92
2023-05-01T04:26:44.422Z,1011.93
2023-05-01T04:27:44.391Z,1011.96
2023-05-01T04:28:44.389Z,1011.90
2023-05-01T04:29:44.373Z,1011.93
2023-05-01T04:30:44.336Z,1011.92
2023-05-01T04:31:44.331Z,1011.92
2023-05-01T04:32:44.357Z,1011.90
2023-05-01T04:33:44.326Z,1011.89
2023-05-01T04:34:44.312Z,1011.92
2023-05-01T04:35:44.291Z,1011.91
2023-05-01T04:36:44.261Z,1011.93
2023-05-01T04:37:44.265Z,1011.89
2023-05-01T04:38:44.233Z,1011.92
2023-05-01T04:39:44.218Z,1011.90
2023-05-01T04:40:44.197Z,1011.88
2023-05-01T04:41:44.196Z,1011.91
2023-05-01T04:42:44.195Z,1011.87
2023-05-01T04:43:44.167Z,1011.86
2023-05-01T04:44:44.152Z,1011.85
2023-05-01T04:45:44.147Z,1011.85
2023-05-01T04:46:44.177Z,1011.85
2023-05-01T04:47:44.158Z,1011.87
2023-05-01T04:48:44.092Z,1011.87
2023-05-01T04:49:44.078Z,1011.89
2023-05-01T04:50:44.054Z,1011.89
2023-05-01T04:51:44.090Z,1011.87
2023-05-01T04:52:44.044Z,1011.88
2023-05-01T04:53:44.058Z,1011.85
2023-05-01T04:54:44.016Z,1011.89
2023-05-01T04:55:43.998Z,1011.91
2023-05-01T04:56:43.974Z,1011.90
2023-05-01T04:57:43.980Z,1011.90
2023-05-01T04:58:43.959Z,1011.92
2023-05-01T04:59:43.944Z,1011.88
2023-05-01T05:00:43.923Z,1011.89
2023-05-01T05:01:43.976Z,1011.86
2023-05-01T05:02:44.010Z,1011.89
2023-05-01T05:03:44.622Z,1011.91
2023-05-01T05:04:43.893Z,1011.89
2023-05-01T05:05:43.857Z,1011.90
2023-05-01T05:06:43.871Z,1011.88
2023-05-01T05:07:43.848Z,1011.91
2023-05-01T05:08:43.823Z,1011.87
2023-05-01T05:09:43.812Z,1011.89
2023-05-01T05:10:43.783Z,1011.88
2023-05-01T05:11:43.795Z,1011.86
2023-05-01T05:12:43.786Z,1011.91
2023-05-01T05:13:43.765Z,1011.88
2023-05-01T05:14:43.731Z,1011.93
2023-05-01T05:15:43.718Z,1011.90
2023-05-01T05:16:43.859Z,1011.92
2023-05-01T05:17:43.727Z,1011.91
2023-05-01T05:18:43.700Z,1011.87
2023-05-01T05:19:43.673Z,1011.92
2023-05-01T05:20:43.655Z,1011.90
2023-05-01T05:21:43.663Z,1011.84
2023-05-01T05:22:43.644Z,1011.87
2023-05-01T05:23:43.630Z,1011.87
2023-05-01T05:24:43.594Z,1011.86
2023-05-01T05:25:43.606Z,1011.85
2023-05-01T05:26:43.583Z,1011.89
2023-05-01T05:27:43.582Z,1011.86
2023-05-01T05:28:43.551Z,1011.87
2023-05-01T05:29:43.542Z,1011.89
2023-05-01T05:30:43.525Z,1011.91
2023-05-01T05:31:43.590Z,1011.87
2023-05-01T05:32:43.562Z,1011.91
2023-05-01T05:33:43.477Z,1011.83
2023-05-01T05:34:43.486Z,1011.83
2023-05-01T05:35:43.436Z,1011.86
2023-05-01T05:36:43.465Z,1011.87
2023-05-01T05:37:45.362Z,1011.87
2023-05-01T05:38:43.440Z,1011.82
2023-05-01T05:39:43.394Z,1011.82
2023-05-01T05:40:43.387Z,1011.81
2023-05-01T05:41:43.407Z,1011.79
2023-05-01T05:42:43.364Z,1011.79
2023-05-01T05:43:43.360Z,1011.83
2023-05-01T05:44:43.333Z,1011.83
2023-05-01T05:45:43.357Z,1011.82
2023-05-01T05:46:43.313Z,1011.81
2023-05-01T05:47:43.328Z,1011.81
2023-05-01T05:48:43.292Z,1011.83
2023-05-01T05:49:43.255Z,1011.82
2023-05-01T05:50:43.246Z,1011.81
2023-05-01T05:51:43.225Z,1011.85
2023-05-01T05:52:43.227Z,1011.80
2023-05-01T05:53:43.218Z,1011.80
2023-05-01T05:54:43.190Z,1011.86
2023-05-01T05:55:43.199Z,1011.86
2023-05-01T05:56:43.176Z,1011.85
2023-05-01T05:57:43.152Z,1011.84
2023-05-01T05:58:43.179Z,1011.82
2023-05-01T05:59:43.122Z,1011.80
2023-05-01T06:00:43.109Z,1011.87
2023-05-01T06:01:43.098Z,1011.80
2023-05-01T06:02:43.215Z,1011.84
2023-05-01T06:03:43.270Z,1011.85
2023-05-01T06:04:43.064Z,1011.86
2023-05-01T06:05:43.105Z,1011.83
2023-05-01T06:06:43.119Z,1011.85
2023-05-01T06:07:43.010Z,1011.87
2023-05-01T06:08:43.014Z,1011.86
2023-05-01T06:09:43.014Z,1011.86
2023-05-01T06:10:42.986Z,1011.86
2023-05-01T06:11:42.962Z,1011.86
2023-05-01T06:12:46.164Z,1011.83
2023-05-01T06:13:43.972Z,1011.88
2023-05-01T06:14:42.924Z,1011.82
2023-05-01T06:15:42.968Z,1011.82
2023-05-01T06:16:42.892Z,1011.84
2023-05-01T06:17:42.914Z,1011.82
2023-05-01T06:18:45.194Z,1011.83
2023-05-01T06:19:42.865Z,1011.86
2023-05-01T06:20:42.844Z,1011.81
2023-05-01T06:21:42.865Z,1011.80
2023-05-01T06:22:42.816Z,1011.81
2023-05-01T06:23:42.817Z,1011.81
2023-05-01T06:24:42.790Z,1011.79
2023-05-01T06:25:42.821Z,1011.80
2023-05-01T06:26:42.757Z,1011.78
2023-05-01T06:27:42.745Z,1011.76
2023-05-01T06:28:42.756Z,1011.75
2023-05-01T06:29:42.714Z,1011.76
2023-05-01T06:30:42.705Z,1011.78
2023-05-01T06:31:42.712Z,1011.77
2023-05-01T06:32:42.707Z,1011.72
2023-05-01T06:33:42.753Z,1011.71
2023-05-01T06:34:42.659Z,1011.74
2023-05-01T06:35:42.622Z,1011.74
2023-05-01T06:36:42.627Z,1011.72
2023-05-01T06:37:42.605Z,1011.68
2023-05-01T06:38:42.616Z,1011.71
2023-05-01T06:39:42.591Z,1011.69
2023-05-01T06:40:42.588Z,1011.65
2023-05-01T06:41:42.554Z,1011.66
2023-05-01T06:42:42.531Z,1011.63
2023-05-01T06:43:42.540Z,1011.68
2023-05-01T06:44:42.516Z,1011.68
2023-05-01T06:45:42.506Z,1011.69
2023-05-01T06:46:42.557Z,1011.72
2023-05-01T06:47:42.514Z,1011.67
2023-05-01T06:48:42.478Z,1011.68
2023-05-01T06:49:42.461Z,1011.66
2023-05-01T06:50:42.443Z,1011.67
2023-05-01T06:51:42.425Z,1011.68
2023-05-01T06:52:42.411Z,1011.68
2023-05-01T06:53:42.403Z,1011.66
2023-05-01T06:54:42.375Z,1011.66
2023-05-01T06:55:42.346Z,1011.64
2023-05-01T06:56:42.394Z,1011.68
2023-05-01T06:57:42.329Z,1011.63
2023-05-01T06:58:42.345Z,1011.66
2023-05-01T06:59:42.334Z,1011.58
2023-05-01T07:00:42.339Z,1011.60
2023-05-01T07:01:42.347Z,1011.61
2023-05-01T07:02:42.508Z,1011.61
2023-05-01T07:03:42.311Z,1011.61
2023-05-01T07:04:42.238Z,1011.61
2023-05-01T07:05:42.221Z,1011.62
2023-05-01T07:06:42.316Z,1011.58
2023-05-01T07:07:50.309Z,1011.62
2023-05-01T07:08:43.214Z,1011.65
2023-05-01T07:09:42.163Z,1011.66
2023-05-01T07:10:42.500Z,1011.63
2023-05-01T07:11:42.149Z,1011.62
2023-05-01T07:12:42.130Z,1011.59
2023-05-01T07:13:42.142Z,1011.60
2023-05-01T07:14:42.112Z,1011.60
2023-05-01T07:15:42.084Z,1011.59
2023-05-01T07:16:42.142Z,1011.62
2023-05-01T07:17:42.083Z,1011.56
2023-05-01T07:18:42.070Z,1011.59
2023-05-01T07:19:42.032Z,1011.60
2023-05-01T07:20:42.030Z,1011.57
2023-05-01T07:21:42.007Z,1011.59
2023-05-01T07:22:42.001Z,1011.61
2023-05-01T07:23:42.005Z,1011.60
2023-05-01T07:24:41.977Z,1011.62
2023-05-01T07:25:41.944Z,1011.62
2023-05-01T07:26:41.949Z,1011.61
2023-05-01T07:27:41.937Z,1011.58
2023-05-01T07:28:41.944Z,1011.60
2023-05-01T07:29:41.894Z,1011.60
2023-05-01T07:30:41.883Z,1011.63
2023-05-01T07:31:41.902Z,1011.66
2023-05-01T07:32:41.894Z,1011.65
2023-05-01T07:33:41.877Z,1011.65
2023-05-01T07:34:41.843Z,1011.66
2023-05-01T07:35:41.817Z,1011.61
2023-05-01T07:36:41.826Z,1011.59
2023-05-01T07:37:41.794Z,1011.59
2023-05-01T07:38:41.805Z,1011.60
2023-05-01T07:39:41.762Z,1011.59
2023-05-01T07:40:41.745Z,1011.60
2023-05-01T07:41:41.723Z,1011.55
2023-05-01T07:42:41.740Z,1011.57
2023-05-01T07:43:41.757Z,1011.56
2023-05-01T07:44:41.701Z,1011.53
2023-05-01T07:45:41.741Z,1011.57
2023-05-01T07:46:41.705Z,1011.52
2023-05-01T07:47:41.745Z,1011.52
2023-05-01T07:48:41.672Z,1011.57
2023-05-01T07:49:41.637Z,1011.47
2023-05-01T07:50:41.629Z,1011.47
2023-05-01T07:51:41.623Z,1011.47
2023-05-01T07:52:41.588Z,1011.45
2023-05-01T07:53:41.588Z,1011.46
2023-05-01T07:54:41.563Z,1011.46
2023-05-01T07:55:41.551Z,1011.45
2023-05-01T07:56:41.523Z,1011.45
2023-05-01T07:57:41.534Z,1011.52
2023-05-01T07:58:41.529Z,1011.42
2023-05-01T07:59:41.489Z,1011.42
2023-05-01T08:00:41.482Z,1011.47
2023-05-01T08:01:41.462Z,1011.48
2023-05-01T08:02:41.612Z,1011.48
2023-05-01T08:03:41.546Z,1011.49
2023-05-01T08:04:41.606Z,1011.48
2023-05-01T08:05:41.442Z,1011.47
2023-05-01T08:06:41.481Z,1011.47
2023-05-01T08:07:41.370Z,1011.46
2023-05-01T08:08:41.397Z,1011.46
2023-05-01T08:09:41.360Z,1011.47
2023-05-01T08:10:41.345Z,1011.52
2023-05-01T08:11:41.322Z,1011.50
2023-05-01T08:12:41.352Z,1011.51
2023-05-01T08:13:41.301Z,1011.51
2023-05-01T08:14:41.300Z,1011.52
2023-05-01T08:15:41.321Z,1011.57
2023-05-01T08:16:41.339Z,1011.55
2023-05-01T08:17:41.298Z,1011.48
2023-05-01T08:18:41.260Z,1011.51
2023-05-01T08:19:41.217Z,1011.48
2023-05-01T08:20:41.208Z,1011.48
2023-05-01T08:21:41.185Z,1011.47
2023-05-01T08:22:41.176Z,1011.47
2023-05-01T08:23:41.192Z,1011.49
2023-05-01T08:24:41.157Z,1011.42
2023-05-01T08:25:41.137Z,1011.47
2023-05-01T08:26:41.135Z,1011.41
2023-05-01T08:27:41.106Z,1011.42
2023-05-01T08:28:41.126Z,1011.42
2023-05-01T08:29:41.096Z,1011.42
2023-05-01T08:30:41.090Z,1011.43
2023-05-01T08:31:41.111Z,1011.43
2023-05-01T08:32:41.081Z,1011.41
2023-05-01T08:33:41.050Z,1011.40
2023-05-01T08:34:41.018Z,1011.42
2023-05-01T08:35:41.010Z,1011.42
2023-05-01T08:36:40.991Z,1011.44
2023-05-01T08:37:40.990Z,1011.48
2023-05-01T08:38:40.995Z,1011.46
2023-05-01T08:39:40.953Z,1011.46
2023-05-01T08:40:40.955Z,1011.48
2023-05-01T08:41:40.924Z,1011.48
2023-05-01T08:42:40.937Z,1011.49
2023-05-01T08:43:40.908Z,1011.48
2023-05-01T08:44:40.895Z,1011.46
2023-05-01T08:45:40.876Z,1011.44
2023-05-01T08:46:40.909Z,1011.43
2023-05-01T08:47:40.932Z,1011.44
2023-05-01T08:48:40.831Z,1011.43
2023-05-01T08:49:40.823Z,1011.44
2023-05-01T08:50:40.798Z,1011.46
2023-05-01T08:51:40.795Z,1011.47
2023-05-01T08:52:40.796Z,1011.44
2023-05-01T08:53:40.752Z,1011.40
2023-05-01T08:54:40.739Z,1011.44
2023-05-01T08:55:40.731Z,1011.43
2023-05-01T08:56:40.730Z,1011.43
2023-05-01T08:57:40.715Z,1011.46
2023-05-01T08:58:40.715Z,1011.42
2023-05-01T08:59:40.682Z,1011.39
2023-05-01T09:00:40.677Z,1011.41
2023-05-01T09:01:40.780Z,1011.42
2023-05-01T09:02:40.675Z,1011.43
2023-05-01T09:03:40.671Z,1011.39
2023-05-01T09:04:40.635Z,1011.39
2023-05-01T09:05:40.589Z,1011.33
2023-05-01T09:06:40.613Z,1011.36
2023-05-01T09:07:40.581Z,1011.34
2023-05-01T09:08:40.567Z,1011.38
2023-05-01T09:09:40.538Z,1011.36
2023-05-01T09:10:40.543Z,1011.34
2023-05-01T09:11:40.514Z,1011.38
2023-05-01T09:12:40.515Z,1011.34
2023-05-01T09:13:40.483Z,1011.35
2023-05-01T09:14:40.474Z,1011.34
2023-05-01T09:15:40.471Z,1011.33
2023-05-01T09:16:40.500Z,1011.35
2023-05-01T09:17:40.534Z,1011.32
2023-05-01T09:18:40.417Z,1011.29
2023-05-01T09:19:40.393Z,1011.29
2023-05-01T09:20:40.395Z,1011.30
2023-05-01T09:21:40.379Z,1011.28
2023-05-01T09:22:40.400Z,1011.26
2023-05-01T09:23:40.356Z,1011.20
2023-05-01T09:24:40.337Z,1011.25
2023-05-01T09:25:40.330Z,1011.23
2023-05-01T09:26:40.309Z,1011.22
2023-05-01T09:27:40.321Z,1011.20
2023-05-01T09:28:40.284Z,1011.19
2023-05-01T09:29:40.274Z,1011.19
2023-05-01T09:30:40.256Z,1011.21
2023-05-01T09:31:40.249Z,1011.22
2023-05-01T09:32:42.470Z,1011.27
2023-05-01T09:33:40.213Z,1011.23
2023-05-01T09:34:40.204Z,1011.19
2023-05-01T09:35:40.185Z,1011.22
2023-05-01T09:36:40.193Z,1011.21
2023-05-01T09:37:40.157Z,1011.23
2023-05-01T09:38:40.145Z,1011.24
2023-05-01T09:39:40.130Z,1011.21
2023-05-01T09:40:40.120Z,1011.22
2023-05-01T09:41:40.110Z,1011.19
2023-05-01T09:42:40.106Z,1011.21
2023-05-01T09:43:40.087Z,1011.21
2023-05-01T09:44:40.063Z,1011.17
2023-05-01T09:45:40.121Z,1011.19
2023-05-01T09:46:40.216Z,1011.16
2023-05-01T09:47:40.068Z,1011.17
2023-05-01T09:48:40.006Z,1011.19
2023-05-01T09:49:39.997Z,1011.16
2023-05-01T09:50:39.974Z,1011.15
2023-05-01T09:51:39.985Z,1011.19
2023-05-01T09:52:39.957Z,1011.21
2023-05-01T09:53:39.965Z,1011.19
2023-05-01T09:54:39.925Z,1011.27
2023-05-01T09:55:39.921Z,1011.26
2023-05-01T09:56:39.926Z,1011.24
2023-05-01T09:57:39.892Z,1011.17
2023-05-01T09:58:39.883Z,1011.21
2023-05-01T09:59:39.867Z,1011.21
2023-05-01T10:00:39.850Z,1011.17
2023-05-01T10:01:40.167Z,1011.19
2023-05-01T10:02:40.014Z,1011.14
2023-05-01T10:03:39.931Z,1011.14
2023-05-01T10:04:39.796Z,1011.11
2023-05-01T10:05:39.805Z,1011.09
2023-05-01T10:06:39.850Z,1011.10
2023-05-01T10:07:39.806Z,1011.12
2023-05-01T10:08:39.742Z,1011.12
2023-05-01T10:09:39.724Z,1011.12
2023-05-01T10:10:39.711Z,1011.12
2023-05-01T10:11:39.751Z,1011.13
2023-05-01T10:12:39.683Z,1011.05
2023-05-01T10:13:39.675Z,1011.04
2023-05-01T10:14:39.710Z,1011.09
2023-05-01T10:15:39.668Z,1011.06
2023-05-01T10:16:39.682Z,1011.06
2023-05-01T10:17:39.676Z,1011.11
2023-05-01T10:18:39.609Z,1011.13
2023-05-01T10:19:39.599Z,1011.07
2023-05-01T10:20:39.597Z,1011.08
2023-05-01T10:21:39.588Z,1011.05
2023-05-01T10:22:39.550Z,1011.01
2023-05-01T10:23:39.538Z,1011.06
2023-05-01T10:24:39.547Z,1011.09
2023-05-01T10:25:39.511Z,1011.05
2023-05-01T10:26:39.546Z,1010.97
2023-05-01T10:27:39.495Z,1011.00
2023-05-01T10:28:39.468Z,1011.02
2023-05-01T10:29:39.467Z,1010.99
2023-05-01T10:30:39.459Z,1010.94
2023-05-01T10:31:41.543Z,1010.93
2023-05-01T10:32:39.478Z,1010.93
2023-05-01T10:33:39.410Z,1010.94
2023-05-01T10:34:39.389Z,1010.87
2023-05-01T10:35:39.388Z,1010.88
2023-05-01T10:36:39.377Z,1010.85
2023-05-01T10:37:39.347Z,1010.83
2023-05-01T10:38:39.365Z,1010.81
2023-05-01T10:39:39.324Z,1010.79
2023-05-01T10:40:39.311Z,1010.80
2023-05-01T10:41:39.324Z,1010.79
2023-05-01T10:42:39.292Z,1010.79
2023-05-01T10:43:39.334Z,1010.77
2023-05-01T10:44:39.260Z,1010.81
2023-05-01T10:45:39.247Z,1010.78
2023-05-01T10:46:39.246Z,1010.73
2023-05-01T10:47:39.250Z,1010.72
2023-05-01T10:48:39.354Z,1010.72
2023-05-01T10:49:39.193Z,1010.69
2023-05-01T10:50:39.163Z,1010.73
2023-05-01T10:51:39.175Z,1010.72
2023-05-01T10:52:39.172Z,1010.71
2023-05-01T10:53:39.145Z,1010.70
2023-05-01T10:54:39.111Z,1010.70
2023-05-01T10:55:39.104Z,1010.69
2023-05-01T10:56:39.109Z,1010.66
2023-05-01T10:57:39.096Z,1010.69
2023-05-01T10:58:39.061Z,1010.62
2023-05-01T10:59:39.056Z,1010.63
2023-05-01T11:00:39.039Z,1010.56
2023-05-01T11:01:39.078Z,1010.52
2023-05-01T11:02:39.096Z,1010.51
2023-05-01T11:03:39.008Z,1010.60
2023-05-01T11:04:38.985Z,1010.53
2023-05-01T11:05:39.000Z,1010.52
2023-05-01T11:06:39.124Z,1010.52
2023-05-01T11:07:38.959Z,1010.49
2023-05-01T11:08:38.966Z,1010.52
2023-05-01T11:09:38.984Z,1010.46
2023-05-01T11:10:38.915Z,1010.48
2023-05-01T11:11:38.911Z,1010.41
2023-05-01T11:12:38.880Z,1010.46
2023-05-01T11:13:38.875Z,1010.43
2023-05-01T11:14:38.852Z,1010.38
2023-05-01T11:15:38.841Z,1010.35
2023-05-01T11:16:39.040Z,1010.36
2023-05-01T11:17:38.838Z,1010.31
2023-05-01T11:18:38.802Z,1010.35
2023-05-01T11:19:38.786Z,1010.33
2023-05-01T11:20:38.767Z,1010.38
2023-05-01T11:21:38.827Z,1010.38
2023-05-01T11:22:38.743Z,1010.36
2023-05-01T11:23:38.742Z,1010.33
2023-05-01T11:24:38.718Z,1010.32
2023-05-01T11:25:38.722Z,1010.33
2023-05-01T11:26:38.715Z,1010.34
2023-05-01T11:27:38.693Z,1010.32
2023-05-01T11:28:38.666Z,1010.33
2023-05-01T11:29:38.661Z,1010.30
2023-05-01T11:30:38.655Z,1010.31
2023-05-01T11:31:38.662Z,1010.25
2023-05-01T11:32:38.632Z,1010.32
2023-05-01T11:33:38.665Z,1010.29
2023-05-01T11:34:38.595Z,1010.35
2023-05-01T11:35:38.656Z,1010.32
2023-05-01T11:36:38.577Z,1010.32
2023-05-01T11:37:38.569Z,1010.27
2023-05-01T11:38:38.562Z,1010.26
2023-05-01T11:39:38.539Z,1010.22
2023-05-01T11:40:38.511Z,1010.28
2023-05-01T11:41:38.537Z,1010.27
2023-05-01T11:42:38.662Z,1010.16
2023-05-01T11:43:38.478Z,1010.24
2023-05-01T11:44:38.456Z,1010.17
2023-05-01T11:45:38.477Z,1010.21
2023-05-01T11:46:38.440Z,1010.24
2023-05-01T11:47:38.468Z,1010.22
2023-05-01T11:48:38.427Z,1010.25
2023-05-01T11:49:38.396Z,1010.17
2023-05-01T11:50:38.382Z,1010.11
2023-05-01T11:51:38.396Z,1010.16
2023-05-01T11:52:38.346Z,1010.09
2023-05-01T11:53:38.347Z,1010.09
2023-05-01T11:54:38.322Z,1010.01
2023-05-01T11:55:38.324Z,1010.01
2023-05-01T11:56:38.333Z,1010.02
2023-05-01T11:57:38.289Z,1010.04
2023-05-01T11:58:38.280Z,1009.92
2023-05-01T11:59:38.270Z,1010.03
2023-05-01T12:00:38.273Z,1010.01
2023-05-01T12:01:38.259Z,1009.91
2023-05-01T12:02:38.453Z,1009.98
2023-05-01T12:03:38.294Z,1010.01
2023-05-01T12:04:38.378Z,1010.02
2023-05-01T12:05:38.192Z,1010.03